createdAt,value
2019-05-15T00:00:41.249Z,6.50
2019-05-15T00:03:13.936Z,6.40
2019-05-15T00:05:46.286Z,6.40
2019-05-15T00:08:18.339Z,6.50
2019-05-15T00:10:49.691Z,6.50
2019-05-15T00:13:22.664Z,6.40
2019-05-15T00:15:54.030Z,6.40
2019-05-15T00:18:25.092Z,6.40
2019-05-15T00:20:59.506Z,6.40
2019-05-15T00:23:30.319Z,6.40
2019-05-15T00:26:02.045Z,6.40
2019-05-15T00:28:33.109Z,6.40
2019-05-15T00:31:04.474Z,6.40
2019-05-15T00:33:39.325Z,6.40
2019-05-15T00:36:12.708Z,6.40
2019-05-15T00:38:43.439Z,6.40
2019-05-15T00:41:15.681Z,6.40
2019-05-15T00:43:49.208Z,6.30
2019-05-15T00:46:22.999Z,6.30
2019-05-15T00:48:55.387Z,6.30
2019-05-15T00:51:28.317Z,6.30
2019-05-15T00:53:58.968Z,6.40
2019-05-15T00:56:29.125Z,6.40
2019-05-15T00:58:59.692Z,6.40
2019-05-15T01:01:33.175Z,6.40
2019-05-15T01:04:08.086Z,6.30
2019-05-15T01:06:40.661Z,6.40
2019-05-15T01:09:10.746Z,6.40
2019-05-15T01:11:43.051Z,6.40
2019-05-15T01:14:12.975Z,6.30
2019-05-15T01:16:43.198Z,6.30
2019-05-15T01:19:15.609Z,6.30
2019-05-15T01:21:47.920Z,6.30
2019-05-15T01:24:18.859Z,6.30
2019-05-15T01:26:51.644Z,6.40
2019-05-15T01:29:21.757Z,6.30
2019-05-15T01:31:53.148Z,6.40
2019-05-15T01:34:25.581Z,6.30
2019-05-15T01:36:59.103Z,6.30
2019-05-15T01:39:29.240Z,6.30
2019-05-15T01:42:01.294Z,6.30
2019-05-15T01:44:33.787Z,6.30
2019-05-15T01:47:03.728Z,6.30
2019-05-15T01:49:35.707Z,6.30
2019-05-15T01:52:08.035Z,6.40
2019-05-15T01:54:40.838Z,6.40
2019-05-15T01:57:13.242Z,6.40
2019-05-15T01:59:56.901Z,6.40
2019-05-15T02:02:19.389Z,6.30
2019-05-15T02:04:50.778Z,6.30
2019-05-15T02:07:23.086Z,6.30
2019-05-15T02:09:53.073Z,6.30
2019-05-15T02:12:28.565Z,6.40
2019-05-15T02:15:03.774Z,6.40
2019-05-15T02:17:36.123Z,6.30
2019-05-15T02:20:08.797Z,6.30
2019-05-15T02:22:42.558Z,6.30
2019-05-15T02:25:12.866Z,6.30
2019-05-15T02:27:43.907Z,6.30
2019-05-15T02:30:24.291Z,6.30
2019-05-15T02:32:50.851Z,6.30
2019-05-15T02:35:21.784Z,6.30
2019-05-15T02:40:29.182Z,6.40
2019-05-15T02:43:02.623Z,6.40
2019-05-15T02:45:36.662Z,6.40
2019-05-15T02:48:09.260Z,6.40
2019-05-15T02:50:40.706Z,6.40
2019-05-15T02:53:13.350Z,6.40
2019-05-15T02:55:49.172Z,6.40
2019-05-15T02:58:40.217Z,6.40
2019-05-15T03:01:12.886Z,6.40
2019-05-15T03:03:45.800Z,6.40
2019-05-15T03:06:22.158Z,6.40
2019-05-15T03:08:53.246Z,6.30
2019-05-15T03:11:29.243Z,6.30
2019-05-15T03:14:03.181Z,6.40
2019-05-15T03:16:34.564Z,6.40
2019-05-15T03:19:05.857Z,6.40
2019-05-15T03:21:38.863Z,6.40
2019-05-15T03:24:12.664Z,6.40
2019-05-15T03:26:45.530Z,6.40
2019-05-15T03:29:20.880Z,6.40
2019-05-15T03:32:06.003Z,6.40
2019-05-15T03:34:37.511Z,6.50
2019-05-15T03:37:03.851Z,6.50
2019-05-15T03:39:39.299Z,6.40
2019-05-15T03:42:10.791Z,6.40
2019-05-15T03:44:42.307Z,6.40
2019-05-15T03:47:20.096Z,6.40
2019-05-15T03:49:53.810Z,6.40
2019-05-15T03:52:33.289Z,6.40
2019-05-15T03:55:11.093Z,6.40
2019-05-15T03:57:44.648Z,6.40
2019-05-15T04:00:19.318Z,6.40
2019-05-15T04:02:49.750Z,6.40
2019-05-15T04:05:23.551Z,6.40
2019-05-15T04:07:59.811Z,6.40
2019-05-15T04:10:39.461Z,6.40
2019-05-15T04:13:09.895Z,6.40
2019-05-15T04:15:40.258Z,6.40
2019-05-15T04:18:13.627Z,6.40
2019-05-15T04:20:49.454Z,6.40
2019-05-15T04:23:24.387Z,6.30
2019-05-15T04:25:58.790Z,6.30
2019-05-15T04:28:31.473Z,6.30
2019-05-15T04:31:09.257Z,6.40
2019-05-15T04:33:43.467Z,6.40
2019-05-15T04:36:15.414Z,6.40
2019-05-15T04:38:50.115Z,6.40
2019-05-15T04:44:05.449Z,6.40
2019-05-15T04:46:42.655Z,6.40
2019-05-15T04:49:19.075Z,6.40
2019-05-15T04:51:50.022Z,6.40
2019-05-15T04:54:21.280Z,6.40
2019-05-15T04:56:51.275Z,6.40
2019-05-15T04:59:21.496Z,6.40
2019-05-15T05:02:12.957Z,6.50
2019-05-15T05:04:24.746Z,6.50
2019-05-15T05:06:58.522Z,6.40
2019-05-15T05:09:29.894Z,6.40
2019-05-15T05:12:00.017Z,6.40
2019-05-15T05:14:33.106Z,6.40
2019-05-15T05:17:05.438Z,6.50
2019-05-15T05:19:35.639Z,6.40
2019-05-15T05:22:07.869Z,6.40
2019-05-15T05:24:39.178Z,6.50
2019-05-15T05:27:12.133Z,6.50
2019-05-15T05:29:43.411Z,6.50
2019-05-15T05:32:30.911Z,6.50
2019-05-15T05:34:50.341Z,6.50
2019-05-15T05:37:23.984Z,6.50
2019-05-15T05:39:57.731Z,6.50
2019-05-15T05:42:30.616Z,6.50
2019-05-15T05:45:01.813Z,6.50
2019-05-15T05:47:33.059Z,6.60
2019-05-15T05:50:08.123Z,6.60
2019-05-15T05:52:39.215Z,6.60
2019-05-15T05:55:12.163Z,6.70
2019-05-15T05:57:45.417Z,6.80
2019-05-15T06:00:18.143Z,6.80
2019-05-15T06:02:52.274Z,6.80
2019-05-15T06:05:28.121Z,6.80
2019-05-15T06:07:58.817Z,6.80
2019-05-15T06:10:30.381Z,6.90
2019-05-15T06:13:01.441Z,6.90
2019-05-15T06:15:31.300Z,6.90
2019-05-15T06:18:03.228Z,6.90
2019-05-15T06:20:32.787Z,6.90
2019-05-15T06:23:08.533Z,6.90
2019-05-15T06:25:39.703Z,6.90
2019-05-15T06:28:12.128Z,6.90
2019-05-15T06:30:42.319Z,6.90
2019-05-15T06:33:13.729Z,7.00
2019-05-15T06:35:45.144Z,6.90
2019-05-15T06:38:19.217Z,7.00
2019-05-15T06:40:50.596Z,6.90
2019-05-15T06:43:25.027Z,6.90
2019-05-15T06:45:58.482Z,7.00
2019-05-15T06:48:33.283Z,7.00
2019-05-15T06:51:05.399Z,7.00
2019-05-15T06:53:35.298Z,7.10
2019-05-15T06:56:07.955Z,7.00
2019-05-15T06:58:42.237Z,7.00
2019-05-15T07:01:13.621Z,7.00
2019-05-15T07:03:48.710Z,7.10
2019-05-15T07:06:19.904Z,7.00
2019-05-15T07:08:52.188Z,7.00
2019-05-15T07:11:23.902Z,7.10
2019-05-15T07:13:58.082Z,7.00
2019-05-15T07:16:32.657Z,7.00
2019-05-15T07:19:04.247Z,7.00
2019-05-15T07:21:38.809Z,7.00
2019-05-15T07:24:09.322Z,7.10
2019-05-15T07:26:39.508Z,7.10
2019-05-15T07:29:10.533Z,7.10
2019-05-15T07:31:43.144Z,7.10
2019-05-15T07:34:13.245Z,7.10
2019-05-15T07:36:44.683Z,7.10
2019-05-15T07:39:18.007Z,7.10
2019-05-15T07:41:49.243Z,7.10
2019-05-15T07:44:22.222Z,7.10
2019-05-15T07:46:55.168Z,7.10
2019-05-15T07:49:28.886Z,7.10
2019-05-15T07:52:01.421Z,7.20
2019-05-15T07:54:34.046Z,7.30
2019-05-15T07:57:05.500Z,7.30
2019-05-15T07:59:35.210Z,7.40
2019-05-15T08:02:08.456Z,7.30
2019-05-15T08:04:41.136Z,7.30
2019-05-15T08:07:12.466Z,7.30
2019-05-15T08:09:45.669Z,7.40
2019-05-15T08:12:19.272Z,7.40
2019-05-15T08:14:51.471Z,7.40
2019-05-15T08:17:24.154Z,7.40
2019-05-15T08:19:54.099Z,7.30
2019-05-15T08:22:28.452Z,7.40
2019-05-15T08:25:00.877Z,7.40
2019-05-15T08:27:30.825Z,7.50
2019-05-15T08:30:02.185Z,7.50
2019-05-15T08:32:35.164Z,7.50
2019-05-15T08:35:12.701Z,7.50
2019-05-15T08:37:44.005Z,7.50
2019-05-15T08:40:17.888Z,7.50
2019-05-15T08:42:57.195Z,7.40
2019-05-15T08:45:22.081Z,7.40
2019-05-15T08:47:53.444Z,7.50
2019-05-15T08:50:24.853Z,7.50
2019-05-15T08:52:57.900Z,7.50
2019-05-15T08:55:28.958Z,7.50
2019-05-15T08:58:06.780Z,7.60
2019-05-15T09:00:33.468Z,7.50
2019-05-15T09:03:04.350Z,7.60
2019-05-15T09:05:38.667Z,7.60
2019-05-15T09:08:09.476Z,7.60
2019-05-15T09:10:41.096Z,7.60
2019-05-15T09:13:13.216Z,7.60
2019-05-15T09:15:48.204Z,7.70
2019-05-15T09:18:21.097Z,7.70
2019-05-15T09:20:52.271Z,7.80
2019-05-15T09:23:23.952Z,7.90
2019-05-15T09:25:54.237Z,7.90
2019-05-15T09:28:29.632Z,7.90
2019-05-15T09:31:02.726Z,8.00
2019-05-15T09:33:34.957Z,8.00
2019-05-15T09:36:08.819Z,8.00
2019-05-15T09:38:40.057Z,8.10
2019-05-15T09:41:11.205Z,8.20
2019-05-15T09:43:44.320Z,8.20
2019-05-15T09:46:15.417Z,8.20
2019-05-15T09:48:51.257Z,8.20
2019-05-15T09:51:18.467Z,8.20
2019-05-15T09:53:51.114Z,8.30
2019-05-15T09:56:21.125Z,8.30
2019-05-15T09:58:58.020Z,8.30
2019-05-15T10:01:28.520Z,8.30
2019-05-15T10:04:01.616Z,8.40
2019-05-15T10:06:35.948Z,8.30
2019-05-15T10:09:12.825Z,8.40
2019-05-15T10:11:43.968Z,8.40
2019-05-15T10:14:16.194Z,8.40
2019-05-15T10:16:48.763Z,8.30
2019-05-15T10:19:19.020Z,8.40
2019-05-15T10:21:52.901Z,8.40
2019-05-15T10:24:23.427Z,8.40
2019-05-15T10:26:55.036Z,8.40
2019-05-15T10:29:28.123Z,8.40
2019-05-15T10:32:00.383Z,8.40
2019-05-15T10:34:34.851Z,8.40
2019-05-15T10:37:08.487Z,8.40
2019-05-15T10:39:38.532Z,8.40
2019-05-15T10:42:11.241Z,8.30
2019-05-15T10:44:43.778Z,8.30
2019-05-15T10:47:15.363Z,8.20
2019-05-15T10:49:48.460Z,8.30
2019-05-15T10:52:19.796Z,8.30
2019-05-15T10:54:51.980Z,8.30
2019-05-15T10:57:22.201Z,8.30
2019-05-15T10:59:54.815Z,8.30
2019-05-15T11:02:25.744Z,8.30
2019-05-15T11:04:57.891Z,8.30
2019-05-15T11:07:29.379Z,8.30
2019-05-15T11:10:00.974Z,8.40
2019-05-15T11:12:34.373Z,8.40
2019-05-15T11:15:11.020Z,8.40
2019-05-15T11:17:40.587Z,8.40
2019-05-15T11:20:12.073Z,8.50
2019-05-15T11:22:42.962Z,8.40
2019-05-15T11:25:14.827Z,8.40
2019-05-15T11:27:48.589Z,8.30
2019-05-15T11:30:21.062Z,8.30
2019-05-15T11:32:52.966Z,8.20
2019-05-15T11:35:25.612Z,8.20
2019-05-15T11:37:57.231Z,8.20
2019-05-15T11:40:28.696Z,8.20
2019-05-15T11:42:58.699Z,8.20
2019-05-15T11:45:29.214Z,8.20
2019-05-15T11:48:01.094Z,8.10
2019-05-15T11:50:32.775Z,8.10
2019-05-15T11:53:02.751Z,8.20
2019-05-15T11:55:32.931Z,8.20
2019-05-15T11:58:05.898Z,8.10
2019-05-15T12:00:38.383Z,8.10
2019-05-15T12:03:09.103Z,8.10
2019-05-15T12:05:41.901Z,8.20
2019-05-15T12:08:12.624Z,8.10
2019-05-15T12:10:45.050Z,8.10
2019-05-15T12:13:20.369Z,8.10
2019-05-15T12:15:53.557Z,8.10
2019-05-15T12:18:25.149Z,8.20
2019-05-15T12:20:59.818Z,8.30
2019-05-15T12:23:32.534Z,8.40
2019-05-15T12:26:05.170Z,8.40
2019-05-15T12:28:40.597Z,8.40
2019-05-15T12:31:13.084Z,8.40
2019-05-15T12:33:45.448Z,8.30
2019-05-15T12:36:40.996Z,8.30
2019-05-15T12:38:50.298Z,8.30
2019-05-15T13:01:50.643Z,8.30
2019-05-15T13:04:23.304Z,8.30
2019-05-15T13:07:12.284Z,8.30
2019-05-15T13:09:30.307Z,8.30
2019-05-15T13:12:02.742Z,8.30
2019-05-15T13:14:35.184Z,8.20
2019-05-15T13:17:07.305Z,8.20
2019-05-15T13:19:38.917Z,8.20
2019-05-15T13:22:19.012Z,8.20
2019-05-15T13:24:44.369Z,8.20
2019-05-15T13:27:15.037Z,8.20
2019-05-15T13:29:48.662Z,8.20
2019-05-15T13:32:20.832Z,8.20
2019-05-15T13:34:54.460Z,8.30
2019-05-15T13:37:28.131Z,8.20
2019-05-15T13:39:59.050Z,8.20
2019-05-15T13:42:31.678Z,8.20
2019-05-15T13:45:01.772Z,8.20
2019-05-15T13:47:33.318Z,8.20
2019-05-15T13:50:08.130Z,8.20
2019-05-15T13:52:39.512Z,8.20
2019-05-15T13:55:12.182Z,8.20
2019-05-15T13:57:45.348Z,8.20
2019-05-15T14:00:18.993Z,8.20
2019-05-15T14:02:53.968Z,8.30
2019-05-15T14:05:25.612Z,8.30
2019-05-15T14:07:58.344Z,8.30
2019-05-15T14:10:33.106Z,8.30
2019-05-15T14:13:05.389Z,8.30
2019-05-15T14:15:40.342Z,8.40
2019-05-15T14:18:14.031Z,8.30
2019-05-15T14:20:46.046Z,8.30
2019-05-15T14:23:18.608Z,8.40
2019-05-15T14:25:51.005Z,8.30
2019-05-15T14:28:28.198Z,8.30
2019-05-15T14:31:00.095Z,8.40
2019-05-15T14:33:33.440Z,8.40
2019-05-15T14:36:08.490Z,8.40
2019-05-15T14:38:40.251Z,8.40
2019-05-15T14:41:12.760Z,8.30
2019-05-15T14:43:48.319Z,8.40
2019-05-15T14:46:23.200Z,8.30
2019-05-15T14:48:54.839Z,8.40
2019-05-15T14:51:28.339Z,8.40
2019-05-15T14:53:58.767Z,8.50
2019-05-15T14:56:31.154Z,8.50
2019-05-15T14:59:03.898Z,8.50
2019-05-15T15:01:38.256Z,8.40
2019-05-15T15:04:08.998Z,8.50
2019-05-15T15:06:41.275Z,8.40
2019-05-15T15:09:13.920Z,8.40
2019-05-15T15:11:45.255Z,8.40
2019-05-15T15:14:19.230Z,8.50
2019-05-15T15:16:52.205Z,8.50
2019-05-15T15:19:24.640Z,8.50
2019-05-15T15:21:58.022Z,8.50
2019-05-15T15:27:00.952Z,8.50
2019-05-15T15:29:30.210Z,8.50
2019-05-15T15:32:01.027Z,8.50
2019-05-15T15:34:36.055Z,8.50
2019-05-15T15:37:08.308Z,8.50
2019-05-15T15:39:41.260Z,8.50
2019-05-15T15:42:15.051Z,8.50
2019-05-15T15:44:48.740Z,8.50
2019-05-15T15:47:21.540Z,8.40
2019-05-15T15:52:28.735Z,8.50
2019-05-15T15:54:59.275Z,8.40
2019-05-15T15:57:31.977Z,8.40
2019-05-15T16:00:04.420Z,8.40
2019-05-15T16:02:35.390Z,8.40
2019-05-15T16:07:44.775Z,8.40
2019-05-15T16:10:19.041Z,8.40
2019-05-15T16:12:50.168Z,8.40
2019-05-15T16:15:30.014Z,8.40
2019-05-15T16:18:01.002Z,8.40
2019-05-15T16:20:31.045Z,8.40
2019-05-15T16:23:02.058Z,8.40
2019-05-15T16:25:33.529Z,8.50
2019-05-15T16:28:11.792Z,8.40
2019-05-15T16:30:51.146Z,8.40
2019-05-15T16:33:18.207Z,8.50
2019-05-15T16:35:52.435Z,8.50
2019-05-15T16:38:27.978Z,8.40
2019-05-15T16:41:00.054Z,8.40
2019-05-15T16:43:30.958Z,8.50
2019-05-15T16:46:02.533Z,8.50
2019-05-15T16:48:32.392Z,8.50
2019-05-15T16:51:02.324Z,8.50
2019-05-15T16:53:35.614Z,8.50
2019-05-15T16:56:07.785Z,8.50
2019-05-15T16:58:40.336Z,8.50
2019-05-15T17:01:11.681Z,8.50
2019-05-15T17:03:44.702Z,8.50
2019-05-15T17:06:18.608Z,8.50
2019-05-15T17:08:51.208Z,8.50
2019-05-15T17:11:22.297Z,8.50
2019-05-15T17:13:59.042Z,8.60
2019-05-15T17:16:29.479Z,8.60
2019-05-15T17:19:01.463Z,8.60
2019-05-15T17:21:33.325Z,8.60
2019-05-15T17:24:04.290Z,8.60
2019-05-15T17:26:38.286Z,8.60
2019-05-15T17:29:11.105Z,8.60
2019-05-15T17:31:42.679Z,8.60
2019-05-15T17:34:12.986Z,8.60
2019-05-15T17:36:45.690Z,8.60
2019-05-15T17:39:20.123Z,8.60
2019-05-15T17:41:51.302Z,8.60
2019-05-15T17:44:21.759Z,8.60
2019-05-15T17:46:53.556Z,8.50
2019-05-15T17:49:23.619Z,8.60
2019-05-15T17:51:55.662Z,8.60
2019-05-15T17:54:28.731Z,8.60
2019-05-15T17:57:01.401Z,8.60
2019-05-15T17:59:34.927Z,8.50
2019-05-15T18:02:05.409Z,8.60
2019-05-15T18:04:38.749Z,8.60
2019-05-15T18:07:09.232Z,8.60
2019-05-15T18:09:50.403Z,8.50
2019-05-15T18:12:17.486Z,8.60
2019-05-15T18:14:50.163Z,8.50
2019-05-15T18:17:21.618Z,8.50
2019-05-15T18:19:51.535Z,8.60
2019-05-15T18:22:24.023Z,8.50
2019-05-15T18:24:54.454Z,8.50
2019-05-15T18:27:25.882Z,8.50
2019-05-15T18:29:58.638Z,8.50
2019-05-15T18:32:32.056Z,8.50
2019-05-15T18:35:01.851Z,8.50
2019-05-15T18:37:34.584Z,8.50
2019-05-15T18:40:06.409Z,8.50
2019-05-15T18:42:39.410Z,8.50
2019-05-15T18:45:14.398Z,8.50
2019-05-15T18:47:45.176Z,8.50
2019-05-15T18:50:19.220Z,8.50
2019-05-15T18:52:50.384Z,8.50
2019-05-15T18:55:24.386Z,8.50
2019-05-15T18:57:58.387Z,8.50
2019-05-15T19:00:29.495Z,8.50
2019-05-15T19:03:01.674Z,8.50
2019-05-15T19:05:32.588Z,8.50
2019-05-15T19:08:12.939Z,8.50
2019-05-15T19:10:47.820Z,8.50
2019-05-15T19:13:19.255Z,8.50
2019-05-15T19:15:52.512Z,8.40
2019-05-15T19:18:23.881Z,8.50
2019-05-15T19:20:55.103Z,8.50
2019-05-15T19:23:25.070Z,8.40
2019-05-15T19:25:57.909Z,8.40
2019-05-15T19:28:29.360Z,8.40
2019-05-15T19:31:01.736Z,8.40
2019-05-15T19:33:37.249Z,8.40
2019-05-15T19:36:07.631Z,8.40
2019-05-15T19:38:38.498Z,8.40
2019-05-15T19:41:13.576Z,8.40
2019-05-15T19:43:45.875Z,8.40
2019-05-15T19:46:15.887Z,8.40
2019-05-15T19:48:48.958Z,8.40
2019-05-15T19:51:18.792Z,8.40
2019-05-15T19:53:50.232Z,8.40
2019-05-15T19:56:21.309Z,8.40
2019-05-15T19:58:52.313Z,8.40
2019-05-15T20:01:23.279Z,8.40
2019-05-15T20:03:53.385Z,8.30
2019-05-15T20:06:24.288Z,8.40
2019-05-15T20:08:56.021Z,8.40
2019-05-15T20:11:27.892Z,8.40
2019-05-15T20:13:58.932Z,8.40
2019-05-15T20:16:31.362Z,8.40
2019-05-15T20:19:03.697Z,8.50
2019-05-15T20:21:36.044Z,8.40
2019-05-15T20:24:09.123Z,8.40
2019-05-15T20:26:39.024Z,8.40
2019-05-15T20:29:09.298Z,8.40
2019-05-15T20:31:41.891Z,8.40
2019-05-15T20:34:14.830Z,8.30
2019-05-15T20:36:48.766Z,8.40
2019-05-15T20:39:20.106Z,8.40
2019-05-15T20:41:50.222Z,8.40
2019-05-15T20:44:25.315Z,8.40
2019-05-15T20:46:58.830Z,8.40
2019-05-15T20:49:30.619Z,8.40
2019-05-15T20:52:04.003Z,8.40
2019-05-15T20:54:35.112Z,8.50
2019-05-15T20:57:09.320Z,8.50
2019-05-15T20:59:40.632Z,8.50
2019-05-15T21:02:11.479Z,8.50
2019-05-15T21:04:44.351Z,8.50
2019-05-15T21:07:34.460Z,8.40
2019-05-15T21:09:53.556Z,8.40
2019-05-15T21:12:27.071Z,8.50
2019-05-15T21:14:58.126Z,8.50
2019-05-15T21:17:28.360Z,8.50
2019-05-15T21:20:01.079Z,8.50
2019-05-15T21:22:32.754Z,8.50
2019-05-15T21:25:02.843Z,8.50
2019-05-15T21:27:34.153Z,8.50
2019-05-15T21:30:08.346Z,8.50
2019-05-15T21:32:38.450Z,8.50
2019-05-15T21:35:09.893Z,8.50
2019-05-15T21:37:40.945Z,8.50
2019-05-15T21:40:12.981Z,8.50
2019-05-15T21:42:42.240Z,8.50
2019-05-15T21:45:14.631Z,8.50
2019-05-15T21:47:45.894Z,8.50
2019-05-15T21:50:19.330Z,8.50
2019-05-15T21:52:55.306Z,8.50
2019-05-15T21:55:25.139Z,8.50
2019-05-15T21:57:59.853Z,8.50
2019-05-15T22:00:38.194Z,8.60
2019-05-15T22:03:09.663Z,8.60
2019-05-15T22:05:42.976Z,8.60
2019-05-15T22:08:15.804Z,8.60
2019-05-15T22:10:48.219Z,8.60
2019-05-15T22:13:21.440Z,8.60
2019-05-15T22:15:52.286Z,8.60
2019-05-15T22:18:28.090Z,8.60
2019-05-15T22:20:58.896Z,8.60
2019-05-15T22:23:30.156Z,8.60
2019-05-15T22:26:01.246Z,8.50
2019-05-15T22:28:34.587Z,8.50
2019-05-15T22:31:08.936Z,8.60
2019-05-15T22:33:39.775Z,8.60
2019-05-15T22:36:12.312Z,8.60
2019-05-15T22:38:44.794Z,8.60
2019-05-15T22:41:19.882Z,8.60
2019-05-15T22:43:50.785Z,8.60
2019-05-15T22:46:20.833Z,8.60
2019-05-15T22:48:50.695Z,8.60
2019-05-15T22:51:21.968Z,8.60
2019-05-15T22:53:53.190Z,8.60
2019-05-15T22:56:24.286Z,8.60
2019-05-15T22:58:58.400Z,8.60
2019-05-15T23:01:32.048Z,8.60
2019-05-15T23:04:04.279Z,8.60
2019-05-15T23:06:38.444Z,8.60
2019-05-15T23:09:08.596Z,8.60
2019-05-15T23:11:39.971Z,8.60
2019-05-15T23:14:10.974Z,8.60
2019-05-15T23:16:41.321Z,8.60
2019-05-15T23:19:13.816Z,8.60
2019-05-15T23:21:45.063Z,8.60
2019-05-15T23:24:18.871Z,8.60
2019-05-15T23:26:49.090Z,8.60
2019-05-15T23:29:19.153Z,8.60
2019-05-15T23:31:52.086Z,8.60
2019-05-15T23:34:23.696Z,8.60
2019-05-15T23:36:55.081Z,8.60
2019-05-15T23:39:27.390Z,8.60
2019-05-15T23:42:00.562Z,8.60
2019-05-15T23:44:31.613Z,8.60
2019-05-15T23:47:05.184Z,8.60
2019-05-15T23:49:38.132Z,8.60
2019-05-15T23:52:08.899Z,8.60
2019-05-15T23:54:39.068Z,8.60
2019-05-15T23:57:13.895Z,8.60
2019-05-15T23:59:47.793Z,8.60
